createdAt,value
2019-06-08T00:01:06.332Z,18.31
2019-06-08T00:03:58.050Z,18.43
2019-06-08T00:06:50.019Z,18.43
2019-06-08T00:09:41.985Z,18.39
2019-06-08T00:12:33.778Z,18.33
2019-06-08T00:15:25.802Z,18.37
2019-06-08T00:18:17.551Z,18.11
2019-06-08T00:21:09.546Z,18.25
2019-06-08T00:24:01.613Z,18.06
2019-06-08T00:26:53.669Z,18.33
2019-06-08T00:29:45.693Z,18.17
2019-06-08T00:32:37.365Z,18.17
2019-06-08T00:35:29.123Z,17.75
2019-06-08T00:38:21.071Z,17.82
2019-06-08T00:41:13.099Z,17.82
2019-06-08T00:44:05.535Z,18.06
2019-06-08T00:46:57.323Z,18.06
2019-06-08T00:49:49.380Z,17.83
2019-06-08T00:52:41.375Z,17.82
2019-06-08T00:55:33.169Z,18.01
2019-06-08T00:58:24.897Z,17.91
2019-06-08T01:01:17.244Z,17.72
2019-06-08T01:04:11.008Z,17.72
2019-06-08T01:07:03.252Z,17.68
2019-06-08T01:09:55.494Z,17.84
2019-06-08T01:12:47.532Z,17.57
2019-06-08T01:15:39.731Z,17.61
2019-06-08T01:18:31.763Z,17.30
2019-06-08T01:21:25.478Z,17.30
2019-06-08T01:24:17.485Z,17.51
2019-06-08T01:27:09.490Z,17.42
2019-06-08T01:30:01.219Z,17.47
2019-06-08T01:32:54.322Z,17.47
2019-06-08T01:35:46.077Z,17.41
2019-06-08T01:38:37.950Z,17.02
2019-06-08T01:41:30.098Z,17.02
2019-06-08T01:44:22.183Z,17.10
2019-06-08T01:47:15.219Z,17.46
2019-06-08T01:50:07.020Z,17.28
2019-06-08T01:53:00.090Z,17.28
2019-06-08T01:55:51.827Z,16.96
2019-06-08T01:58:43.662Z,16.75
2019-06-08T02:01:35.687Z,16.79
2019-06-08T02:04:28.115Z,16.79
2019-06-08T02:07:19.940Z,17.00
2019-06-08T02:10:12.043Z,17.27
2019-06-08T02:13:04.086Z,17.21
2019-06-08T02:15:55.933Z,17.16
2019-06-08T02:18:51.016Z,16.97
2019-06-08T02:21:41.331Z,16.97
2019-06-08T02:24:33.460Z,16.82
2019-06-08T02:27:25.314Z,17.00
2019-06-08T02:30:17.284Z,17.07
2019-06-08T02:33:09.118Z,17.30
2019-06-08T02:36:00.880Z,17.06
2019-06-08T02:38:52.822Z,17.16
2019-06-08T02:41:44.860Z,17.16
2019-06-08T02:44:37.044Z,17.29
2019-06-08T02:47:30.329Z,17.29
2019-06-08T02:50:53.812Z,17.45
2019-06-08T02:53:45.898Z,17.36
2019-06-08T02:56:39.296Z,17.19
2019-06-08T02:59:35.498Z,17.19
2019-06-08T03:02:29.519Z,17.25
2019-06-08T03:05:21.803Z,17.32
2019-06-08T03:08:13.778Z,17.32
2019-06-08T03:11:05.719Z,17.08
2019-06-08T03:13:57.472Z,17.08
2019-06-08T03:16:49.639Z,17.15
2019-06-08T03:19:42.191Z,17.03
2019-06-08T03:22:34.757Z,17.36
2019-06-08T03:25:27.979Z,17.10
2019-06-08T03:28:19.985Z,17.18
2019-06-08T03:31:12.002Z,17.23
2019-06-08T03:34:03.934Z,17.23
2019-06-08T03:36:57.607Z,17.11
2019-06-08T03:39:49.293Z,17.12
2019-06-08T03:42:42.016Z,17.12
2019-06-08T03:45:34.330Z,16.94
2019-06-08T03:48:26.470Z,16.94
2019-06-08T03:51:18.465Z,17.07
2019-06-08T03:54:10.262Z,17.18
2019-06-08T03:57:02.463Z,17.36
2019-06-08T03:59:54.467Z,17.54
2019-06-08T04:02:46.812Z,17.54
2019-06-08T04:05:40.819Z,17.56
2019-06-08T04:08:32.530Z,17.33
2019-06-08T04:11:24.905Z,17.33
2019-06-08T04:14:17.031Z,17.19
2019-06-08T04:17:09.409Z,17.18
2019-06-08T04:20:10.069Z,17.18
2019-06-08T04:22:55.400Z,16.95
2019-06-08T04:25:47.681Z,17.39
2019-06-08T04:28:40.572Z,17.39
2019-06-08T04:31:32.678Z,17.25
2019-06-08T04:34:24.697Z,17.31
2019-06-08T04:37:16.531Z,17.09
2019-06-08T04:40:09.474Z,17.09
2019-06-08T04:43:01.640Z,17.14
2019-06-08T04:45:53.658Z,16.91
2019-06-08T04:48:47.399Z,17.05
2019-06-08T04:51:40.611Z,17.05
2019-06-08T04:54:32.557Z,17.34
2019-06-08T04:57:24.288Z,17.24
2019-06-08T05:00:16.403Z,17.34
2019-06-08T05:03:08.402Z,17.34
2019-06-08T05:06:00.160Z,17.06
2019-06-08T05:08:52.079Z,17.06
2019-06-08T05:11:45.277Z,16.99
2019-06-08T05:14:37.090Z,16.84
2019-06-08T05:17:29.023Z,16.84
2019-06-08T05:20:37.301Z,16.76
2019-06-08T05:23:14.488Z,16.76
2019-06-08T05:26:06.162Z,16.96
2019-06-08T05:28:58.114Z,17.18
2019-06-08T05:31:50.094Z,17.16
2019-06-08T05:34:43.367Z,17.04
2019-06-08T05:37:35.621Z,17.04
2019-06-08T05:40:27.697Z,17.04
2019-06-08T05:43:19.626Z,17.14
2019-06-08T05:46:11.602Z,17.14
2019-06-08T05:49:03.765Z,17.29
2019-06-08T05:51:55.846Z,17.21
2019-06-08T05:54:47.937Z,17.12
2019-06-08T05:57:40.115Z,17.02
2019-06-08T06:00:32.399Z,17.10
2019-06-08T06:03:24.288Z,17.24
2019-06-08T06:06:16.554Z,17.33
2019-06-08T06:09:08.570Z,17.23
2019-06-08T06:12:00.778Z,17.13
2019-06-08T06:14:52.709Z,17.06
2019-06-08T06:17:46.718Z,17.08
2019-06-08T06:20:38.422Z,17.08
2019-06-08T06:23:30.430Z,17.11
2019-06-08T06:26:22.321Z,16.93
2019-06-08T06:29:14.548Z,16.81
2019-06-08T06:32:06.679Z,16.83
2019-06-08T06:34:58.770Z,16.65
2019-06-08T06:37:52.034Z,16.76
2019-06-08T06:40:44.082Z,16.93
2019-06-08T06:43:36.189Z,16.93
2019-06-08T06:46:27.855Z,16.81
2019-06-08T06:49:19.670Z,16.81
2019-06-08T06:52:11.709Z,16.76
2019-06-08T06:55:04.432Z,16.64
2019-06-08T06:57:56.268Z,16.64
2019-06-08T07:00:49.445Z,16.67
2019-06-08T07:03:41.287Z,16.53
2019-06-08T07:06:33.171Z,16.43
2019-06-08T07:09:25.527Z,16.55
2019-06-08T07:12:17.335Z,16.55
2019-06-08T07:15:09.430Z,16.52
2019-06-08T07:18:01.383Z,16.53
2019-06-08T07:20:54.380Z,16.77
2019-06-08T07:23:46.348Z,16.68
2019-06-08T07:26:38.254Z,16.68
2019-06-08T07:29:30.421Z,16.59
2019-06-08T07:32:22.124Z,16.59
2019-06-08T07:35:14.070Z,16.76
2019-06-08T07:38:06.119Z,16.60
2019-06-08T07:41:00.104Z,16.59
2019-06-08T07:43:52.340Z,16.75
2019-06-08T07:46:44.561Z,16.60
2019-06-08T07:49:36.389Z,16.52
2019-06-08T07:52:28.272Z,16.52
2019-06-08T07:55:20.403Z,16.34
2019-06-08T07:58:13.219Z,16.34
2019-06-08T08:01:08.230Z,16.33
2019-06-08T08:03:59.095Z,16.33
2019-06-08T08:06:52.217Z,16.50
2019-06-08T08:09:44.643Z,16.48
2019-06-08T08:12:36.510Z,16.48
2019-06-08T08:15:28.625Z,16.77
2019-06-08T08:18:20.505Z,16.77
2019-06-08T08:21:22.128Z,16.56
2019-06-08T08:24:07.328Z,16.07
2019-06-08T08:27:03.205Z,16.03
2019-06-08T08:29:53.267Z,16.20
2019-06-08T08:32:47.957Z,16.20
2019-06-08T08:35:38.892Z,16.16
2019-06-08T08:38:30.761Z,16.11
2019-06-08T08:41:22.823Z,15.93
2019-06-08T08:44:14.890Z,16.01
2019-06-08T08:47:07.701Z,16.01
2019-06-08T08:50:01.884Z,16.09
2019-06-08T08:52:54.255Z,15.76
2019-06-08T08:55:48.036Z,15.90
2019-06-08T08:58:40.274Z,15.91
2019-06-08T09:01:33.199Z,15.92
2019-06-08T09:04:27.649Z,15.92
2019-06-08T09:07:18.994Z,16.04
2019-06-08T09:10:11.344Z,16.02
2019-06-08T09:13:04.721Z,16.27
2019-06-08T09:16:00.463Z,16.08
2019-06-08T09:18:52.219Z,16.14
2019-06-08T09:21:44.456Z,16.21
2019-06-08T09:24:38.799Z,16.20
2019-06-08T09:27:29.819Z,16.33
2019-06-08T09:30:21.874Z,16.10
2019-06-08T09:33:13.981Z,16.10
2019-06-08T09:36:07.964Z,16.12
2019-06-08T09:39:03.045Z,15.86
2019-06-08T09:41:55.991Z,15.90
2019-06-08T09:44:48.367Z,15.97
2019-06-08T09:47:40.596Z,15.97
2019-06-08T09:50:32.557Z,15.97
2019-06-08T09:53:36.411Z,16.13
2019-06-08T09:56:18.592Z,16.08
2019-06-08T09:59:14.503Z,16.11
2019-06-08T10:02:09.080Z,16.12
2019-06-08T10:05:00.980Z,16.12
2019-06-08T10:07:52.188Z,16.28
2019-06-08T10:10:44.233Z,16.35
2019-06-08T10:13:38.621Z,16.54
2019-06-08T10:16:31.079Z,16.43
2019-06-08T10:19:23.560Z,16.43
2019-06-08T10:22:17.997Z,16.39
2019-06-08T10:25:11.171Z,16.45
2019-06-08T10:28:10.159Z,16.45
2019-06-08T10:30:59.628Z,16.61
2019-06-08T10:33:50.414Z,16.29
2019-06-08T10:36:42.239Z,16.29
2019-06-08T10:39:34.075Z,16.45
2019-06-08T10:42:26.308Z,16.45
2019-06-08T10:45:18.665Z,16.61
2019-06-08T10:48:10.994Z,16.66
2019-06-08T10:51:05.276Z,16.65
2019-06-08T10:53:57.922Z,16.65
2019-06-08T10:56:50.111Z,17.03
2019-06-08T10:59:41.931Z,17.03
2019-06-08T11:02:34.373Z,17.10
2019-06-08T11:05:28.091Z,17.29
2019-06-08T11:08:20.309Z,17.29
2019-06-08T11:11:13.441Z,17.32
2019-06-08T11:14:07.326Z,17.76
2019-06-08T11:17:00.311Z,17.76
2019-06-08T11:19:52.342Z,17.79
2019-06-08T11:22:44.401Z,17.78
2019-06-08T11:25:37.675Z,17.78
2019-06-08T11:28:29.703Z,17.74
2019-06-08T11:31:21.650Z,17.85
2019-06-08T11:34:13.585Z,17.85
2019-06-08T11:37:07.843Z,17.97
2019-06-08T11:39:59.885Z,17.87
2019-06-08T11:42:52.081Z,17.78
2019-06-08T11:45:44.175Z,17.72
2019-06-08T11:48:39.285Z,17.72
2019-06-08T11:51:29.850Z,17.81
2019-06-08T11:54:36.153Z,17.77
2019-06-08T11:57:17.666Z,17.66
2019-06-08T12:00:23.675Z,17.55
2019-06-08T12:03:08.829Z,17.42
2019-06-08T12:06:02.189Z,17.39
2019-06-08T12:08:54.176Z,17.40
2019-06-08T12:11:48.038Z,17.40
2019-06-08T12:14:40.560Z,17.59
2019-06-08T12:17:32.841Z,17.65
2019-06-08T12:20:24.574Z,17.91
2019-06-08T12:23:16.347Z,17.72
2019-06-08T12:26:08.454Z,17.79
2019-06-08T12:29:01.311Z,17.72
2019-06-08T12:31:53.459Z,17.80
2019-06-08T12:34:46.791Z,17.80
2019-06-08T12:37:38.851Z,17.87
2019-06-08T12:40:31.276Z,17.99
2019-06-08T12:43:23.317Z,18.07
2019-06-08T12:46:16.934Z,18.05
2019-06-08T12:49:11.360Z,18.18
2019-06-08T12:52:03.932Z,18.43
2019-06-08T12:55:05.549Z,18.52
2019-06-08T12:57:51.742Z,18.54
2019-06-08T13:00:43.617Z,18.54
2019-06-08T13:03:37.688Z,18.68
2019-06-08T13:06:28.932Z,18.74
2019-06-08T13:09:21.046Z,18.67
2019-06-08T13:12:15.051Z,18.67
2019-06-08T13:15:08.472Z,18.73
2019-06-08T13:18:01.482Z,19.17
2019-06-08T13:20:53.652Z,19.17
2019-06-08T13:23:47.985Z,19.28
2019-06-08T13:26:39.456Z,19.04
2019-06-08T13:29:31.352Z,18.78
2019-06-08T13:32:23.256Z,18.78
2019-06-08T13:35:15.070Z,18.83
2019-06-08T13:38:08.742Z,18.87
2019-06-08T13:41:00.648Z,18.87
2019-06-08T13:43:52.479Z,18.69
2019-06-08T13:46:44.605Z,18.37
2019-06-08T13:49:37.679Z,18.33
2019-06-08T13:52:30.010Z,18.49
2019-06-08T13:55:47.392Z,18.33
2019-06-08T13:58:20.803Z,18.33
2019-06-08T14:01:10.562Z,18.48
2019-06-08T14:04:02.710Z,18.26
2019-06-08T14:06:54.437Z,18.14
2019-06-08T14:09:47.922Z,18.17
2019-06-08T14:12:40.139Z,18.35
2019-06-08T14:15:32.131Z,18.35
2019-06-08T14:18:28.069Z,18.44
2019-06-08T14:21:28.069Z,18.68
2019-06-08T14:24:13.015Z,18.79
2019-06-08T14:27:04.836Z,18.37
2019-06-08T14:29:58.352Z,18.08
2019-06-08T14:32:50.249Z,17.65
2019-06-08T14:35:42.457Z,16.81
2019-06-08T14:38:38.558Z,16.81
2019-06-08T14:41:31.140Z,17.67
2019-06-08T14:44:22.945Z,18.31
2019-06-08T14:47:15.836Z,18.31
2019-06-08T14:50:08.081Z,19.12
2019-06-08T14:52:59.933Z,18.96
2019-06-08T14:56:04.881Z,18.70
2019-06-08T14:58:48.183Z,18.70
2019-06-08T15:01:39.705Z,18.95
2019-06-08T15:04:36.526Z,18.58
2019-06-08T15:07:27.343Z,18.72
2019-06-08T15:10:21.470Z,18.72
2019-06-08T15:13:13.247Z,18.81
2019-06-08T15:16:07.411Z,18.87
2019-06-08T15:19:00.346Z,18.93
2019-06-08T15:21:52.712Z,18.93
2019-06-08T15:24:44.543Z,18.93
2019-06-08T15:27:38.756Z,18.95
2019-06-08T15:30:31.134Z,18.95
2019-06-08T15:33:24.523Z,19.48
2019-06-08T15:36:20.191Z,19.79
2019-06-08T15:39:11.134Z,20.11
2019-06-08T15:42:03.000Z,20.11
2019-06-08T15:44:54.968Z,19.71
2019-06-08T15:47:48.556Z,19.68
2019-06-08T15:50:40.554Z,19.82
2019-06-08T15:53:34.070Z,19.82
2019-06-08T15:56:38.217Z,19.70
2019-06-08T15:59:20.084Z,19.69
2019-06-08T16:02:12.131Z,19.46
2019-06-08T16:05:05.555Z,19.32
2019-06-08T16:07:57.423Z,19.57
2019-06-08T16:10:49.215Z,20.01
2019-06-08T16:13:41.010Z,20.31
2019-06-08T16:16:33.482Z,20.34
2019-06-08T16:19:25.593Z,20.34
2019-06-08T16:22:17.611Z,20.43
2019-06-08T16:25:09.485Z,20.54
2019-06-08T16:28:01.267Z,20.54
2019-06-08T16:30:53.003Z,20.41
2019-06-08T16:33:45.298Z,20.01
2019-06-08T16:36:37.387Z,20.01
2019-06-08T16:39:29.175Z,19.39
2019-06-08T16:42:21.348Z,18.71
2019-06-08T16:45:13.728Z,17.60
2019-06-08T16:48:05.782Z,17.60
2019-06-08T16:50:57.829Z,17.34
2019-06-08T16:53:49.714Z,17.34
2019-06-08T16:56:41.813Z,17.92
2019-06-08T16:59:34.423Z,18.34
2019-06-08T17:02:26.476Z,18.34
2019-06-08T17:05:18.448Z,18.24
2019-06-08T17:08:10.728Z,18.31
2019-06-08T17:11:03.010Z,18.40
2019-06-08T17:13:55.474Z,18.29
2019-06-08T17:16:47.580Z,18.29
2019-06-08T17:19:40.348Z,18.21
2019-06-08T17:22:32.478Z,18.55
2019-06-08T17:25:24.563Z,18.48
2019-06-08T17:28:16.646Z,18.50
2019-06-08T17:31:08.905Z,18.58
2019-06-08T17:34:01.237Z,18.75
2019-06-08T17:36:53.195Z,18.75
2019-06-08T17:39:45.206Z,18.62
2019-06-08T17:42:37.615Z,18.62
2019-06-08T17:45:29.961Z,18.84
2019-06-08T17:48:22.069Z,18.84
2019-06-08T17:51:14.213Z,18.95
2019-06-08T17:54:06.510Z,18.80
2019-06-08T17:56:58.399Z,18.84
2019-06-08T17:59:50.159Z,19.12
2019-06-08T18:02:43.783Z,19.00
2019-06-08T18:05:36.718Z,18.90
2019-06-08T18:08:28.928Z,18.90
2019-06-08T18:11:20.955Z,18.64
2019-06-08T18:14:13.179Z,18.59
2019-06-08T18:17:05.069Z,18.39
2019-06-08T18:19:57.951Z,18.25
2019-06-08T18:22:50.193Z,18.42
2019-06-08T18:25:43.404Z,18.42
2019-06-08T18:28:36.472Z,18.60
2019-06-08T18:31:28.721Z,18.66
2019-06-08T18:34:20.888Z,18.38
2019-06-08T18:37:13.097Z,18.38
2019-06-08T18:40:07.259Z,18.62
2019-06-08T18:42:59.271Z,18.54
2019-06-08T18:45:51.318Z,18.26
2019-06-08T18:48:44.867Z,18.26
2019-06-08T18:51:38.237Z,18.42
2019-06-08T18:54:31.042Z,18.51
2019-06-08T18:57:23.164Z,18.43
2019-06-08T19:00:15.279Z,18.43
2019-06-08T19:03:07.822Z,18.30
2019-06-08T19:05:59.648Z,18.23
2019-06-08T19:08:51.750Z,18.04
2019-06-08T19:11:43.947Z,18.04
2019-06-08T19:14:37.772Z,17.97
2019-06-08T19:17:29.368Z,17.90
2019-06-08T19:20:21.493Z,17.82
2019-06-08T19:23:13.631Z,17.82
2019-06-08T19:26:07.690Z,17.60
2019-06-08T19:28:59.002Z,17.60
2019-06-08T19:31:51.441Z,17.67
2019-06-08T19:34:43.924Z,17.79
2019-06-08T19:37:37.701Z,17.79
2019-06-08T19:40:29.589Z,17.77
2019-06-08T19:43:21.368Z,17.60
2019-06-08T19:46:13.414Z,17.35
2019-06-08T19:49:07.853Z,17.35
2019-06-08T19:51:59.439Z,17.35
2019-06-08T19:54:53.835Z,17.35
2019-06-08T19:57:48.502Z,17.52
2019-06-08T20:00:41.065Z,17.40
2019-06-08T20:03:34.104Z,17.58
2019-06-08T20:06:27.825Z,17.62
2019-06-08T20:09:19.774Z,17.62
2019-06-08T20:12:11.583Z,17.63
2019-06-08T20:15:05.590Z,17.64
2019-06-08T20:17:58.251Z,17.67
2019-06-08T20:20:52.714Z,17.39
2019-06-08T20:23:44.787Z,17.31
2019-06-08T20:26:37.481Z,17.31
2019-06-08T20:29:29.767Z,17.44
2019-06-08T20:32:21.873Z,17.45
2019-06-08T20:35:14.496Z,17.43
2019-06-08T20:38:08.267Z,17.57
2019-06-08T20:41:00.641Z,17.57
2019-06-08T20:43:53.644Z,17.30
2019-06-08T20:46:46.723Z,17.37
2019-06-08T20:49:39.813Z,17.15
2019-06-08T20:52:31.563Z,17.15
2019-06-08T20:55:23.283Z,16.93
2019-06-08T20:58:17.593Z,16.71
2019-06-08T21:01:08.531Z,16.71
2019-06-08T21:04:00.532Z,16.76
2019-06-08T21:06:52.831Z,16.76
2019-06-08T21:09:45.419Z,16.67
2019-06-08T21:12:38.150Z,16.67
2019-06-08T21:15:30.078Z,16.50
2019-06-08T21:18:22.103Z,16.71
2019-06-08T21:21:13.756Z,16.71
2019-06-08T21:24:07.689Z,16.64
2019-06-08T21:27:00.586Z,16.64
2019-06-08T21:29:59.934Z,16.59
2019-06-08T21:32:50.322Z,16.28
2019-06-08T21:35:40.294Z,16.20
2019-06-08T21:38:32.282Z,16.25
2019-06-08T21:41:24.396Z,16.40
2019-06-08T21:44:16.391Z,16.52
2019-06-08T21:47:08.911Z,16.71
2019-06-08T21:50:04.865Z,16.40
2019-06-08T21:52:59.061Z,16.36
2019-06-08T21:55:50.699Z,16.41
2019-06-08T21:58:42.798Z,16.41
2019-06-08T22:01:37.418Z,16.36
2019-06-08T22:04:28.690Z,16.36
2019-06-08T22:07:20.856Z,16.24
2019-06-08T22:10:12.880Z,16.24
2019-06-08T22:13:04.717Z,16.48
2019-06-08T22:15:59.845Z,16.54
2019-06-08T22:18:51.428Z,16.18
2019-06-08T22:21:47.907Z,16.39
2019-06-08T22:24:38.446Z,16.55
2019-06-08T22:27:30.572Z,16.59
2019-06-08T22:30:35.162Z,16.36
2019-06-08T22:33:17.565Z,16.33
2019-06-08T22:36:09.668Z,16.33
2019-06-08T22:39:02.595Z,16.66
2019-06-08T22:41:56.083Z,16.29
2019-06-08T22:44:48.887Z,16.28
2019-06-08T22:47:40.906Z,16.40
2019-06-08T22:50:32.697Z,16.40
2019-06-08T22:53:24.687Z,16.51
2019-06-08T22:56:18.345Z,16.51
2019-06-08T22:59:10.380Z,16.35
2019-06-08T23:02:04.199Z,16.28
2019-06-08T23:04:56.259Z,16.25
2019-06-08T23:07:48.769Z,16.47
2019-06-08T23:10:41.329Z,16.48
2019-06-08T23:13:33.611Z,16.44
2019-06-08T23:16:27.233Z,16.19
2019-06-08T23:19:19.107Z,15.86
2019-06-08T23:22:10.981Z,16.19
2019-06-08T23:25:04.475Z,15.91
2019-06-08T23:27:56.275Z,15.87
2019-06-08T23:31:03.381Z,16.19
2019-06-08T23:33:42.138Z,16.18
2019-06-08T23:36:50.785Z,16.18
2019-06-08T23:39:28.670Z,15.89
2019-06-08T23:42:20.598Z,15.80
2019-06-08T23:45:13.221Z,15.95
2019-06-08T23:48:05.008Z,15.93
2019-06-08T23:50:57.912Z,16.21
2019-06-08T23:53:50.744Z,16.09
2019-06-08T23:56:42.706Z,16.33
2019-06-08T23:59:37.033Z,16.33
